首页
METAR-TAF:

METAR-TAF

机场 :

通孔廷国际机场

德古斯加巴, 洪都拉斯

纬度: 14-03N, 经度: 087-13W, 海拔: 994米

当前天气观测

该预报发布于46分钟前的01:00 UTC
风速4节,风向南转南东
温度 22°C
湿度 83%
气压 1018 hPa
能见度10公里或以上
少量云层高于3000英尺
少量云层高于3200英尺, 积雨云.
多云层高于25000英尺

METAR: MHTG 200100Z 16004KT 9999 FEW030 FEW032CB BKN250 22/19 Q1018 A3006 NOSIG

时间: 19:46 (01:46 UTC)

预报

该预报发布于3小时和11分钟前的22:35 UTC
预报有效从20日的 00点(UTC)到 20日的 24点(UTC)
风速4节,风向南转南东
能见度10公里或以上
散云层高于3000英尺, 塔状积云.
少量云层高于3200英尺, 积雨云.
成为
从 20日的 08点(UTC)到 20日的 10点(UTC)
风速节,风向
能見度: 8000
少量云层高于800英尺
散云层高于2600英尺
成为
从 20日的 14点(UTC)到 20日的 16点(UTC)
风速8节,风向南转南东
能见度10公里或以上
少量云层高于3000英尺
成为
从 20日的 21点(UTC)到 20日的 23点(UTC)
散云层高于3000英尺, 塔状积云.
散云层高于7000英尺

TAF: MHTG 192235Z 2000/2024 16004KT 9999 SCT030TCU FEW032CB TX30/2020Z TN16/2012Z BECMG 2008/2010 00000KT 8000 FEW008 SCT026 BECMG 2014/2016 16008KT 9999 FEW030 BECMG 2021/2023 SCT030TCU SCT070

超过4000个机场的气象观测和天气预报(METAR&TAF报告)。

可查询的气象台以黄色和红色小点在地图上表示。

将鼠标移到小点上方,可查看气象台名称。

然后点击查看天气观测和预报。

如需切换地图:点击带黑十字的绿色按钮放大地图;点击带横线的绿色按钮缩小地图;或者点击绿色箭头查看邻近地区的地图。


METAR-TAF: